Time;durP1;ratioP1;P1;durP2;ratioP2;P2;SDS_P1;SDS_P2;PMS_P1;PMS_P2;Temp;Humidity;BMP_temperature;BMP_pressure;BME280_temperature;BME280_humidity;BME280_pressure;Samples;Min_cycle;Max_cycle;Signal;HPM_P1;HPM_P2
2021/10/27 00:01:02;;;;;;;;;;;23.90;34.00;;;;;;496091;240;1276;-73
2021/10/27 00:03:03;;;;;;;;;;;23.80;34.10;;;;;;496113;240;2194;-73
2021/10/27 00:05:05;;;;;;;;;;;23.90;34.00;;;;;;496052;240;948;-74
2021/10/27 00:07:06;;;;;;;;;;;23.90;33.90;;;;;;495993;240;1225;-74
2021/10/27 00:09:08;;;;;;;;;;;24.00;33.70;;;;;;496049;240;989;-74
2021/10/27 00:11:09;;;;;;;;;;;23.90;33.80;;;;;;495946;240;1370;-74
2021/10/27 00:13:10;;;;;;;;;;;23.90;33.90;;;;;;496040;240;1143;-74
2021/10/27 00:15:11;;;;;;;;;;;23.90;33.80;;;;;;496112;240;1087;-74
2021/10/27 00:17:13;;;;;;;;;;;23.90;33.80;;;;;;496013;240;1027;-74
2021/10/27 00:19:14;;;;;;;;;;;24.00;33.70;;;;;;496042;240;970;-74
2021/10/27 00:21:15;;;;;;;;;;;24.00;33.50;;;;;;496098;240;976;-74
2021/10/27 00:23:17;;;;;;;;;;;23.90;33.60;;;;;;496021;240;2182;-74
2021/10/27 00:25:18;;;;;;;;;;;24.00;33.60;;;;;;496032;240;1043;-74
2021/10/27 00:27:19;;;;;;;;;;;24.00;33.50;;;;;;496058;240;1211;-74
2021/10/27 00:29:21;;;;;;;;;;;23.90;33.60;;;;;;496086;240;1100;-74
2021/10/27 00:31:23;;;;;;;;;;;24.00;33.60;;;;;;496059;240;1111;-74
2021/10/27 00:33:23;;;;;;;;;;;24.00;33.50;;;;;;496006;240;1471;-74
2021/10/27 00:35:25;;;;;;;;;;;24.10;33.40;;;;;;496101;240;969;-74
2021/10/27 00:37:26;;;;;;;;;;;24.10;33.20;;;;;;496122;240;1185;-74
2021/10/27 00:39:27;;;;;;;;;;;24.10;33.20;;;;;;496091;240;1062;-74
2021/10/27 00:41:29;;;;;;;;;;;23.90;33.40;;;;;;495948;240;1161;-74
2021/10/27 00:43:30;;;;;;;;;;;23.90;33.50;;;;;;496007;240;2170;-74
2021/10/27 00:45:32;;;;;;;;;;;23.80;33.50;;;;;;496050;240;989;-74
2021/10/27 00:47:33;;;;;;;;;;;24.00;33.40;;;;;;495967;240;1067;-74
2021/10/27 00:49:34;;;;;;;;;;;23.90;33.40;;;;;;496022;240;964;-74
2021/10/27 00:51:35;;;;;;;;;;;23.80;33.50;;;;;;495968;240;1439;-74
2021/10/27 00:53:37;;;;;;;;;;;24.00;33.30;;;;;;496006;240;1199;-74
2021/10/27 00:55:38;;;;;;;;;;;23.80;33.40;;;;;;496085;240;1013;-74
2021/10/27 00:57:39;;;;;;;;;;;23.90;33.30;;;;;;495954;240;1300;-74
2021/10/27 00:59:41;;;;;;;;;;;24.00;33.20;;;;;;496173;240;1149;-74
2021/10/27 01:01:42;;;;;;;;;;;24.00;33.10;;;;;;496011;240;1399;-74
2021/10/27 01:03:43;;;;;;;;;;;23.90;33.10;;;;;;496052;240;2178;-74
2021/10/27 01:05:45;;;;;;;;;;;24.00;33.00;;;;;;496140;240;1190;-74
2021/10/27 01:07:46;;;;;;;;;;;24.00;33.10;;;;;;495996;240;1140;-74
2021/10/27 01:09:47;;;;;;;;;;;23.70;33.30;;;;;;496091;240;1094;-74
2021/10/27 01:11:49;;;;;;;;;;;23.80;33.10;;;;;;495939;240;1192;-74
2021/10/27 01:13:50;;;;;;;;;;;23.90;33.10;;;;;;496029;240;1148;-74
2021/10/27 01:15:51;;;;;;;;;;;23.80;33.10;;;;;;495997;240;1202;-74
2021/10/27 01:17:53;;;;;;;;;;;23.90;33.00;;;;;;496107;240;1102;-74
2021/10/27 01:19:55;;;;;;;;;;;24.00;33.00;;;;;;496123;240;1053;-74
2021/10/27 01:21:55;;;;;;;;;;;24.00;32.90;;;;;;496081;240;1466;-74
2021/10/27 01:23:57;;;;;;;;;;;23.90;32.80;;;;;;496056;240;2115;-74
2021/10/27 01:25:58;;;;;;;;;;;23.80;32.90;;;;;;495929;240;1203;-74
2021/10/27 01:27:59;;;;;;;;;;;23.90;33.00;;;;;;495936;240;1083;-74
2021/10/27 01:30:01;;;;;;;;;;;23.80;33.00;;;;;;496003;240;1165;-74
2021/10/27 01:32:02;;;;;;;;;;;23.90;32.90;;;;;;495948;240;1212;-74
2021/10/27 01:34:03;;;;;;;;;;;23.90;32.80;;;;;;496014;240;989;-74
2021/10/27 01:36:05;;;;;;;;;;;23.90;32.70;;;;;;496037;240;1126;-74
2021/10/27 01:38:06;;;;;;;;;;;24.00;32.70;;;;;;496086;240;1115;-74
2021/10/27 01:40:07;;;;;;;;;;;23.90;32.70;;;;;;496113;240;1060;-74
2021/10/27 01:42:09;;;;;;;;;;;24.00;32.60;;;;;;495901;240;1099;-74
2021/10/27 01:44:11;;;;;;;;;;;23.90;32.60;;;;;;496045;240;2111;-74
2021/10/27 01:46:12;;;;;;;;;;;24.00;32.60;;;;;;496041;240;1453;-74
2021/10/27 01:48:13;;;;;;;;;;;23.80;32.60;;;;;;495979;240;1110;-74
2021/10/27 01:50:15;;;;;;;;;;;23.80;32.80;;;;;;496132;240;1068;-74
2021/10/27 01:52:16;;;;;;;;;;;23.80;32.70;;;;;;496025;240;1420;-74
2021/10/27 01:54:17;;;;;;;;;;;23.90;32.70;;;;;;496086;240;1064;-74
2021/10/27 01:56:18;;;;;;;;;;;23.80;32.60;;;;;;496007;240;1153;-74
2021/10/27 01:58:20;;;;;;;;;;;23.80;32.80;;;;;;496014;240;1099;-74
2021/10/27 02:00:21;;;;;;;;;;;23.60;32.90;;;;;;495487;240;1190;-74
2021/10/27 02:02:22;;;;;;;;;;;23.50;32.80;;;;;;494954;240;1135;-74
2021/10/27 02:04:24;;;;;;;;;;;23.50;32.90;;;;;;494908;240;2179;-74
2021/10/27 02:06:25;;;;;;;;;;;23.50;32.80;;;;;;495003;240;1136;-74
2021/10/27 02:08:26;;;;;;;;;;;23.20;33.30;;;;;;494937;240;945;-74
2021/10/27 02:10:27;;;;;;;;;;;23.30;33.20;;;;;;494944;240;1096;-74
2021/10/27 02:12:29;;;;;;;;;;;23.10;33.40;;;;;;494940;240;1221;-74
2021/10/27 02:14:30;;;;;;;;;;;23.30;33.10;;;;;;494872;240;1198;-74
2021/10/27 02:16:32;;;;;;;;;;;23.40;33.00;;;;;;494771;237;1132;-74
2021/10/27 02:18:33;;;;;;;;;;;23.50;32.70;;;;;;494982;240;1114;-74
2021/10/27 02:20:34;;;;;;;;;;;23.80;32.50;;;;;;494964;240;1136;-74
2021/10/27 02:22:36;;;;;;;;;;;23.90;32.30;;;;;;494891;240;1174;-74
2021/10/27 02:24:37;;;;;;;;;;;23.90;32.10;;;;;;494918;240;2194;-74
2021/10/27 02:26:38;;;;;;;;;;;24.10;31.90;;;;;;494948;240;1274;-74
2021/10/27 02:28:40;;;;;;;;;;;24.00;31.80;;;;;;494914;240;1017;-74
2021/10/27 02:30:41;;;;;;;;;;;24.10;31.80;;;;;;494962;240;1204;-74
2021/10/27 02:32:44;;;;;;;;;;;24.20;31.70;;;;;;494876;240;1211;-74
2021/10/27 02:34:44;;;;;;;;;;;24.10;31.70;;;;;;494913;240;1377;-74
2021/10/27 02:36:46;;;;;;;;;;;24.20;31.60;;;;;;494915;240;1061;-74
2021/10/27 02:38:47;;;;;;;;;;;24.30;31.50;;;;;;494988;240;1081;-74
2021/10/27 02:40:48;;;;;;;;;;;24.40;31.20;;;;;;495040;240;1196;-74
2021/10/27 02:42:50;;;;;;;;;;;24.40;31.20;;;;;;494949;240;1162;-74
2021/10/27 02:44:51;;;;;;;;;;;24.40;31.20;;;;;;495073;240;2178;-74
2021/10/27 02:46:52;;;;;;;;;;;24.40;31.10;;;;;;494842;240;1083;-74
2021/10/27 02:48:54;;;;;;;;;;;24.50;31.10;;;;;;494956;240;1139;-74
2021/10/27 02:50:55;;;;;;;;;;;24.50;31.10;;;;;;494956;240;1219;-74
2021/10/27 02:52:56;;;;;;;;;;;24.50;31.10;;;;;;494890;240;1129;-74
2021/10/27 02:54:58;;;;;;;;;;;24.60;31.00;;;;;;494966;240;977;-74
2021/10/27 02:56:59;;;;;;;;;;;24.40;31.10;;;;;;494983;240;1381;-74
2021/10/27 02:59:00;;;;;;;;;;;24.50;30.90;;;;;;494917;240;1229;-74
2021/10/27 03:01:02;;;;;;;;;;;24.60;30.90;;;;;;495048;240;1270;-74
2021/10/27 03:03:03;;;;;;;;;;;24.50;30.90;;;;;;494991;240;1245;-74
2021/10/27 03:05:04;;;;;;;;;;;24.40;31.00;;;;;;495006;240;2175;-74
2021/10/27 03:07:06;;;;;;;;;;;24.40;30.90;;;;;;494903;240;1144;-74
2021/10/27 03:09:07;;;;;;;;;;;24.40;30.90;;;;;;494976;240;1167;-74
2021/10/27 03:11:09;;;;;;;;;;;24.60;30.80;;;;;;494956;240;1238;-74
2021/10/27 03:13:10;;;;;;;;;;;24.50;30.80;;;;;;495012;240;1473;-74
2021/10/27 03:15:11;;;;;;;;;;;24.50;30.90;;;;;;494980;237;1266;-74
2021/10/27 03:17:16;;;;;;;;;;;24.40;30.90;;;;;;494958;240;1149;-74
2021/10/27 03:19:13;;;;;;;;;;;24.30;30.90;;;;;;494803;240;1396;-74
2021/10/27 03:21:15;;;;;;;;;;;24.40;30.90;;;;;;494909;240;1104;-74
2021/10/27 03:23:16;;;;;;;;;;;24.30;30.90;;;;;;494921;240;1208;-74
2021/10/27 03:25:17;;;;;;;;;;;24.30;31.10;;;;;;494946;240;2115;-74
2021/10/27 03:27:19;;;;;;;;;;;24.30;31.10;;;;;;495023;240;1141;-74
2021/10/27 03:29:20;;;;;;;;;;;24.20;31.10;;;;;;494969;240;1106;-74
2021/10/27 03:31:21;;;;;;;;;;;24.20;31.00;;;;;;494921;240;1254;-74
2021/10/27 03:33:23;;;;;;;;;;;24.20;31.10;;;;;;495028;240;1057;-74
2021/10/27 03:35:24;;;;;;;;;;;24.30;31.00;;;;;;494955;240;1221;-74
2021/10/27 03:37:25;;;;;;;;;;;24.30;31.00;;;;;;494965;240;1126;-74
2021/10/27 03:39:27;;;;;;;;;;;24.20;31.00;;;;;;494957;240;1174;-74
2021/10/27 03:41:28;;;;;;;;;;;24.20;31.00;;;;;;494883;240;1315;-74
2021/10/27 03:43:29;;;;;;;;;;;24.20;31.00;;;;;;494882;240;961;-74
2021/10/27 03:45:31;;;;;;;;;;;24.20;31.00;;;;;;494967;240;2182;-74
2021/10/27 03:47:32;;;;;;;;;;;24.20;31.00;;;;;;494886;240;1234;-74
2021/10/27 03:49:34;;;;;;;;;;;24.20;31.00;;;;;;495028;240;1060;-74
2021/10/27 03:51:35;;;;;;;;;;;24.20;31.00;;;;;;494751;240;1462;-74
2021/10/27 03:53:36;;;;;;;;;;;24.10;30.90;;;;;;494879;240;1086;-74
2021/10/27 03:55:37;;;;;;;;;;;24.10;31.00;;;;;;494881;240;990;-74
2021/10/27 03:57:39;;;;;;;;;;;24.10;30.90;;;;;;494883;240;1148;-74
2021/10/27 03:59:40;;;;;;;;;;;24.10;30.90;;;;;;494916;240;1028;-74
2021/10/27 04:01:41;;;;;;;;;;;24.20;30.80;;;;;;495176;240;1226;-74
2021/10/27 04:03:43;;;;;;;;;;;24.20;30.70;;;;;;496054;240;1012;-74
2021/10/27 04:05:44;;;;;;;;;;;24.20;30.70;;;;;;496003;240;2115;-74
2021/10/27 04:07:45;;;;;;;;;;;24.20;30.70;;;;;;496081;240;978;-74
2021/10/27 04:09:47;;;;;;;;;;;24.10;30.80;;;;;;495921;240;1120;-74
2021/10/27 04:11:48;;;;;;;;;;;24.10;30.70;;;;;;495991;240;1269;-74
2021/10/27 04:13:50;;;;;;;;;;;24.10;30.80;;;;;;495999;240;1084;-74
2021/10/27 04:15:51;;;;;;;;;;;24.10;30.80;;;;;;495942;240;1054;-74
2021/10/27 04:17:52;;;;;;;;;;;24.10;30.70;;;;;;495897;240;1119;-74
2021/10/27 04:19:54;;;;;;;;;;;24.20;30.70;;;;;;495943;240;1035;-74
2021/10/27 04:21:55;;;;;;;;;;;24.20;30.50;;;;;;495846;240;1259;-74
2021/10/27 04:23:56;;;;;;;;;;;24.30;30.50;;;;;;495927;240;998;-74
2021/10/27 04:25:58;;;;;;;;;;;24.30;30.40;;;;;;495996;240;2189;-74
2021/10/27 04:27:59;;;;;;;;;;;24.40;30.30;;;;;;496131;240;979;-74
2021/10/27 04:30:00;;;;;;;;;;;24.30;30.30;;;;;;495944;240;992;-74
2021/10/27 04:32:02;;;;;;;;;;;24.40;30.40;;;;;;496012;240;1193;-74
2021/10/27 04:34:03;;;;;;;;;;;24.40;30.20;;;;;;495973;240;1045;-74
2021/10/27 04:36:04;;;;;;;;;;;24.50;30.20;;;;;;495974;240;1185;-74
2021/10/27 04:38:06;;;;;;;;;;;24.50;30.10;;;;;;495828;240;1023;-74
2021/10/27 04:40:07;;;;;;;;;;;24.40;30.10;;;;;;495838;240;1033;-74
2021/10/27 04:42:08;;;;;;;;;;;24.40;30.10;;;;;;495939;240;1196;-74
2021/10/27 04:44:10;;;;;;;;;;;24.50;30.00;;;;;;495878;240;1118;-74
2021/10/27 04:46:11;;;;;;;;;;;24.50;30.00;;;;;;495623;240;2189;-74
2021/10/27 04:48:13;;;;;;;;;;;24.50;30.10;;;;;;495712;240;1192;-74
2021/10/27 04:50:14;;;;;;;;;;;24.50;30.00;;;;;;495957;240;1262;-74
2021/10/27 04:52:15;;;;;;;;;;;24.50;30.00;;;;;;495865;240;1421;-74
2021/10/27 04:54:16;;;;;;;;;;;24.50;30.00;;;;;;495863;240;1063;-74
2021/10/27 04:56:18;;;;;;;;;;;24.40;30.00;;;;;;495837;240;1089;-74
2021/10/27 04:58:19;;;;;;;;;;;24.50;30.00;;;;;;495773;240;1162;-74
2021/10/27 05:00:20;;;;;;;;;;;24.50;29.90;;;;;;495684;240;982;-74
2021/10/27 05:02:22;;;;;;;;;;;24.50;29.90;;;;;;495504;240;1260;-74
2021/10/27 05:04:23;;;;;;;;;;;24.50;29.90;;;;;;494601;240;1062;-74
2021/10/27 05:06:24;;;;;;;;;;;24.50;29.90;;;;;;494745;240;2233;-74
2021/10/27 05:08:26;;;;;;;;;;;24.50;29.80;;;;;;494768;240;1110;-74
2021/10/27 05:10:27;;;;;;;;;;;24.40;29.80;;;;;;494692;240;1114;-74
2021/10/27 05:12:28;;;;;;;;;;;24.60;29.70;;;;;;494776;240;1135;-74
2021/10/27 05:14:30;;;;;;;;;;;24.60;29.70;;;;;;494649;240;1021;-74
2021/10/27 05:16:31;;;;;;;;;;;24.50;29.70;;;;;;494577;240;1031;-74
2021/10/27 05:18:32;;;;;;;;;;;24.50;29.70;;;;;;494557;240;1198;-74
2021/10/27 05:20:34;;;;;;;;;;;24.50;29.70;;;;;;494569;240;1026;-74
2021/10/27 05:22:35;;;;;;;;;;;24.50;29.70;;;;;;494624;240;1082;-74
2021/10/27 05:24:36;;;;;;;;;;;24.50;29.60;;;;;;494686;240;1073;-74
2021/10/27 05:26:37;;;;;;;;;;;24.60;29.60;;;;;;494484;240;2210;-74
2021/10/27 05:28:39;;;;;;;;;;;24.30;29.70;;;;;;494543;240;945;-74
2021/10/27 05:30:40;;;;;;;;;;;24.10;30.00;;;;;;494562;240;958;-74
2021/10/27 05:32:42;;;;;;;;;;;24.10;30.00;;;;;;494616;240;1080;-74
2021/10/27 05:34:43;;;;;;;;;;;24.10;30.00;;;;;;494607;240;1017;-74
2021/10/27 05:36:44;;;;;;;;;;;24.00;30.00;;;;;;494650;240;1240;-74
2021/10/27 05:38:46;;;;;;;;;;;24.00;30.00;;;;;;494645;240;1043;-74
2021/10/27 05:40:47;;;;;;;;;;;24.00;30.00;;;;;;494609;240;1205;-74
2021/10/27 05:42:48;;;;;;;;;;;24.00;30.00;;;;;;494454;240;1111;-74
2021/10/27 05:44:51;;;;;;;;;;;24.00;30.00;;;;;;494487;240;982;-74
2021/10/27 05:46:52;;;;;;;;;;;24.00;30.00;;;;;;494288;240;2116;-74
2021/10/27 05:49:03;;;;;;;;;;;24.00;30.00;;;;;;494536;240;1444;-74
2021/10/27 05:51:10;;;;;;;;;;;24.00;30.00;;;;;;494023;240;1300;-74
2021/10/27 05:55:28;;;;;;;;;;;24.00;30.10;;;;;;494546;240;1039;-74
2021/10/27 05:57:27;;;;;;;;;;;24.00;30.00;;;;;;494187;240;1405;-74
2021/10/27 05:59:28;;;;;;;;;;;24.00;30.00;;;;;;494263;240;1048;-74
2021/10/27 06:01:30;;;;;;;;;;;24.00;30.10;;;;;;494295;240;1121;-74
2021/10/27 06:03:32;;;;;;;;;;;23.90;30.00;;;;;;494831;240;1156;-74
2021/10/27 06:05:32;;;;;;;;;;;23.90;30.10;;;;;;495324;240;2190;-74
2021/10/27 06:07:34;;;;;;;;;;;23.80;30.20;;;;;;495366;240;1161;-74
2021/10/27 06:09:37;;;;;;;;;;;23.90;30.20;;;;;;495442;240;1013;-74
2021/10/27 06:11:37;;;;;;;;;;;23.90;30.20;;;;;;495313;240;1307;-74
2021/10/27 06:13:43;;;;;;;;;;;23.80;30.10;;;;;;495318;240;1199;-74
2021/10/27 06:15:39;;;;;;;;;;;23.90;30.10;;;;;;494925;240;1370;-74
2021/10/27 06:17:40;;;;;;;;;;;23.90;30.00;;;;;;495394;240;1192;-74
2021/10/27 06:19:42;;;;;;;;;;;23.90;30.10;;;;;;495315;240;1266;-74
2021/10/27 06:21:43;;;;;;;;;;;23.90;30.10;;;;;;495523;240;1058;-74
2021/10/27 06:23:44;;;;;;;;;;;23.90;30.10;;;;;;495592;240;1118;-74
2021/10/27 06:25:46;;;;;;;;;;;23.80;30.20;;;;;;495518;240;2111;-74
2021/10/27 06:27:49;;;;;;;;;;;23.80;30.20;;;;;;495300;240;1431;-74
2021/10/27 06:29:53;;;;;;;;;;;23.80;30.20;;;;;;495193;240;1392;-74
2021/10/27 06:31:54;;;;;;;;;;;23.90;30.10;;;;;;495092;240;1443;-74
2021/10/27 06:33:57;;;;;;;;;;;24.00;30.10;;;;;;495051;235;1479;-74
2021/10/27 06:35:59;;;;;;;;;;;24.00;30.00;;;;;;494946;240;1438;-74
2021/10/27 06:38:20;;;;;;;;;;;24.00;30.00;;;;;;494975;240;1447;-74
2021/10/27 06:47:12;;;;;;;;;;;23.90;30.20;;;;;;495225;240;2139;-74
2021/10/27 06:49:14;;;;;;;;;;;24.00;30.00;;;;;;495327;240;1200;-74
2021/10/27 06:51:15;;;;;;;;;;;23.90;30.10;;;;;;495093;240;1118;-74
2021/10/27 06:53:16;;;;;;;;;;;24.00;30.10;;;;;;495130;240;1187;-74
2021/10/27 06:55:18;;;;;;;;;;;24.00;30.00;;;;;;495155;240;1040;-74
2021/10/27 06:57:23;;;;;;;;;;;24.00;30.10;;;;;;495018;240;1188;-74
2021/10/27 06:59:27;;;;;;;;;;;24.00;30.10;;;;;;494547;240;1560;-74
2021/10/27 07:01:28;;;;;;;;;;;24.00;30.10;;;;;;494724;240;1630;-74
2021/10/27 07:03:45;;;;;;;;;;;24.10;30.20;;;;;;495002;240;1371;-74
2021/10/27 07:05:57;;;;;;;;;;;24.00;30.20;;;;;;494807;240;2190;-74
2021/10/27 07:15:05;;;;;;;;;;;24.00;30.40;;;;;;495025;240;1096;-74
2021/10/27 07:17:04;;;;;;;;;;;24.00;30.40;;;;;;495274;240;1394;-74
2021/10/27 07:19:05;;;;;;;;;;;23.90;30.50;;;;;;495387;240;1214;-74
2021/10/27 07:21:06;;;;;;;;;;;23.90;30.60;;;;;;495243;240;1024;-74
2021/10/27 07:23:09;;;;;;;;;;;23.90;30.70;;;;;;495237;240;1041;-74
2021/10/27 07:25:09;;;;;;;;;;;23.90;30.80;;;;;;495169;240;1262;-74
2021/10/27 07:27:11;;;;;;;;;;;23.90;30.80;;;;;;495135;240;2186;-74
2021/10/27 07:29:16;;;;;;;;;;;23.90;31.00;;;;;;495207;240;1376;-74
2021/10/27 07:31:15;;;;;;;;;;;23.80;31.10;;;;;;494863;240;1409;-74
2021/10/27 07:33:15;;;;;;;;;;;23.90;31.10;;;;;;495309;240;1329;-74
2021/10/27 07:35:23;;;;;;;;;;;23.90;31.10;;;;;;495266;240;1223;-74
2021/10/27 07:40:05;;;;;;;;;;;23.80;31.40;;;;;;495324;240;1066;-74
2021/10/27 07:41:57;;;;;;;;;;;23.80;31.60;;;;;;494541;240;1351;-74
2021/10/27 07:44:02;;;;;;;;;;;23.70;31.80;;;;;;495194;240;993;-74
2021/10/27 07:46:00;;;;;;;;;;;23.60;31.90;;;;;;494879;240;2123;-76
2021/10/27 07:48:01;;;;;;;;;;;23.60;32.00;;;;;;495138;240;1346;-74
2021/10/27 07:50:03;;;;;;;;;;;23.50;32.20;;;;;;495116;240;1152;-74
2021/10/27 07:52:04;;;;;;;;;;;23.60;32.20;;;;;;495284;240;1289;-74
2021/10/27 07:54:05;;;;;;;;;;;23.40;32.50;;;;;;495302;240;1027;-74
2021/10/27 07:56:06;;;;;;;;;;;23.50;32.50;;;;;;495172;240;1160;-74
2021/10/27 07:58:08;;;;;;;;;;;23.40;32.60;;;;;;495279;240;1091;-74
2021/10/27 08:00:09;;;;;;;;;;;23.40;32.80;;;;;;494892;240;1468;-74
2021/10/27 08:02:10;;;;;;;;;;;23.50;32.80;;;;;;495159;240;1235;-74
2021/10/27 08:04:12;;;;;;;;;;;23.40;32.90;;;;;;495240;240;1045;-74
2021/10/27 08:06:13;;;;;;;;;;;23.30;33.00;;;;;;495224;240;2155;-74
2021/10/27 08:08:14;;;;;;;;;;;23.30;33.30;;;;;;495282;240;1117;-74
2021/10/27 08:10:16;;;;;;;;;;;23.20;33.40;;;;;;495199;240;1068;-74
2021/10/27 08:12:17;;;;;;;;;;;23.30;33.50;;;;;;495203;240;1238;-74
2021/10/27 08:14:18;;;;;;;;;;;23.20;33.60;;;;;;495127;240;1081;-74
2021/10/27 08:16:20;;;;;;;;;;;23.40;33.50;;;;;;494975;240;1127;-74
2021/10/27 08:18:21;;;;;;;;;;;23.40;33.40;;;;;;495115;240;1161;-74
2021/10/27 08:20:22;;;;;;;;;;;23.70;33.20;;;;;;494987;240;1162;-74
2021/10/27 08:22:24;;;;;;;;;;;24.00;32.70;;;;;;494961;240;1210;-74
2021/10/27 08:24:25;;;;;;;;;;;24.10;32.50;;;;;;494973;240;1123;-74
2021/10/27 08:26:27;;;;;;;;;;;24.00;32.80;;;;;;494852;240;2194;-74
2021/10/27 08:28:34;;;;;;;;;;;24.10;32.80;;;;;;494868;240;1034;-74
2021/10/27 08:30:37;;;;;;;;;;;24.10;32.80;;;;;;494917;240;1427;-74
2021/10/27 08:32:48;;;;;;;;;;;24.10;32.90;;;;;;494663;240;1764;-74
2021/10/27 08:34:48;;;;;;;;;;;24.20;32.80;;;;;;494954;240;1302;-74
2021/10/27 08:36:48;;;;;;;;;;;24.20;32.90;;;;;;495008;240;1240;-74
2021/10/27 08:38:50;;;;;;;;;;;24.20;33.00;;;;;;494870;240;1035;-74
2021/10/27 08:40:51;;;;;;;;;;;24.30;32.90;;;;;;494987;240;1388;-74
2021/10/27 08:42:52;;;;;;;;;;;24.20;33.10;;;;;;494978;240;1253;-74
2021/10/27 08:44:54;;;;;;;;;;;24.20;33.20;;;;;;494789;240;1295;-74
2021/10/27 08:46:55;;;;;;;;;;;24.20;33.30;;;;;;494786;240;2162;-74
2021/10/27 08:48:57;;;;;;;;;;;24.20;33.50;;;;;;494696;240;1065;-74
2021/10/27 08:50:58;;;;;;;;;;;24.10;33.60;;;;;;494955;240;1297;-74
2021/10/27 08:53:01;;;;;;;;;;;24.20;33.50;;;;;;495164;240;1058;-74
2021/10/27 08:55:01;;;;;;;;;;;24.10;33.60;;;;;;494886;240;1385;-74
2021/10/27 08:57:02;;;;;;;;;;;24.20;33.60;;;;;;495205;240;1219;-74
2021/10/27 08:59:09;;;;;;;;;;;24.20;33.60;;;;;;494941;240;1044;-74
2021/10/27 09:01:10;;;;;;;;;;;24.10;33.80;;;;;;494715;240;1631;-74
2021/10/27 09:03:15;;;;;;;;;;;23.80;34.30;;;;;;495095;240;1318;-74
2021/10/27 09:05:33;;;;;;;;;;;23.60;34.70;;;;;;487454;238;4882;-74
2021/10/27 09:07:42;;;;;;;;;;;23.60;34.90;;;;;;484113;246;2406;-74
2021/10/27 09:09:48;;;;;;;;;;;23.60;35.00;;;;;;483824;246;1454;-74
2021/10/27 09:16:26;;;;;;;;;;;23.60;35.20;;;;;;484526;242;1324;-74
2021/10/27 09:34:48;;;;;;;;;;;24.40;34.40;;;;;;484399;245;1088;-74
2021/10/27 09:44:07;;;;;;;;;;;24.70;34.30;;;;;;484526;245;1034;-74
2021/10/27 10:04:56;;;;;;;;;;;24.70;34.60;;;;;;484746;245;1044;-74
2021/10/27 10:06:57;;;;;;;;;;;24.70;34.60;;;;;;484650;245;2215;-74
2021/10/27 10:08:58;;;;;;;;;;;24.70;34.80;;;;;;484732;245;1125;-74
2021/10/27 10:11:00;;;;;;;;;;;24.60;34.90;;;;;;484716;245;1201;-73
2021/10/27 10:13:01;;;;;;;;;;;24.60;34.90;;;;;;484311;245;1142;-74
2021/10/27 10:15:03;;;;;;;;;;;24.70;34.80;;;;;;484422;245;1001;-74
2021/10/27 10:17:04;;;;;;;;;;;24.60;35.00;;;;;;484580;245;1319;-74
2021/10/27 10:19:06;;;;;;;;;;;24.60;35.10;;;;;;484641;245;1142;-74
2021/10/27 10:21:07;;;;;;;;;;;24.50;35.30;;;;;;484662;241;1190;-74
2021/10/27 10:23:09;;;;;;;;;;;24.60;35.30;;;;;;484667;245;1119;-74
2021/10/27 10:25:10;;;;;;;;;;;24.60;35.20;;;;;;484698;245;1101;-74
2021/10/27 10:27:11;;;;;;;;;;;24.70;35.20;;;;;;484953;245;2198;-74
2021/10/27 10:29:13;;;;;;;;;;;24.70;35.10;;;;;;484589;245;1023;-74
2021/10/27 10:31:14;;;;;;;;;;;24.60;35.30;;;;;;484687;245;1227;-74
2021/10/27 10:33:15;;;;;;;;;;;24.80;35.20;;;;;;485021;245;1686;-74
2021/10/27 10:35:18;;;;;;;;;;;24.60;35.30;;;;;;484969;245;1150;-74
2021/10/27 10:37:18;;;;;;;;;;;24.70;35.40;;;;;;484883;246;1326;-74
2021/10/27 10:39:34;;;;;;;;;;;24.70;35.40;;;;;;485288;245;824;-74
2021/10/27 10:41:33;;;;;;;;;;;24.70;35.40;;;;;;484298;246;1273;-74
2021/10/27 10:43:45;;;;;;;;;;;24.70;35.40;;;;;;484891;245;1416;-74
2021/10/27 10:45:46;;;;;;;;;;;24.80;35.40;;;;;;484186;246;1527;-74
2021/10/27 10:57:22;;;;;;;;;;;24.90;35.40;;;;;;484466;245;1091;-74
2021/10/27 11:01:57;;;;;;;;;;;24.80;35.50;;;;;;472393;246;1150;-74
2021/10/27 11:04:07;;;;;;;;;;;24.80;35.60;;;;;;483918;246;1421;-74
2021/10/27 11:25:07;;;;;;;;;;;24.80;35.90;;;;;;482984;246;1398;-74
2021/10/27 11:27:35;;;;;;;;;;;24.90;35.80;;;;;;483937;246;2191;-74
2021/10/27 11:38:56;;;;;;;;;;;24.90;35.90;;;;;;484639;245;1138;-74
2021/10/27 11:40:58;;;;;;;;;;;24.80;36.00;;;;;;484302;246;1274;-74
2021/10/27 11:43:00;;;;;;;;;;;24.80;36.00;;;;;;484525;246;1924;-74
2021/10/27 11:45:05;;;;;;;;;;;24.80;36.10;;;;;;484354;246;1306;-74
2021/10/27 11:47:03;;;;;;;;;;;24.90;36.10;;;;;;483994;246;2195;-74
2021/10/27 11:49:08;;;;;;;;;;;24.30;36.70;;;;;;484556;245;1547;-74
2021/10/27 11:51:03;;;;;;;;;;;24.00;37.40;;;;;;483972;245;1430;-74
2021/10/27 11:53:06;;;;;;;;;;;24.00;37.60;;;;;;484564;245;1184;-74
2021/10/27 11:55:06;;;;;;;;;;;24.00;37.60;;;;;;484373;245;1354;-74
2021/10/27 11:57:08;;;;;;;;;;;23.90;37.80;;;;;;484752;245;1111;-74
2021/10/27 11:59:09;;;;;;;;;;;24.10;37.50;;;;;;484655;245;1028;-74
2021/10/27 12:01:11;;;;;;;;;;;23.90;37.80;;;;;;484595;245;1212;-74
2021/10/27 12:03:13;;;;;;;;;;;24.00;37.70;;;;;;484609;245;1324;-74
2021/10/27 12:05:13;;;;;;;;;;;24.10;37.50;;;;;;484390;246;1457;-74
2021/10/27 12:07:18;;;;;;;;;;;24.00;37.60;;;;;;484528;245;2191;-74
2021/10/27 12:12:08;;;;;;;;;;;24.00;37.50;;;;;;482641;242;1286;-74
2021/10/27 12:14:13;;;;;;;;;;;24.10;37.70;;;;;;484786;245;1329;-74
2021/10/27 12:16:24;;;;;;;;;;;23.90;37.60;;;;;;484490;245;1293;-74
2021/10/27 12:18:14;;;;;;;;;;;24.30;37.30;;;;;;483619;246;1537;-74
2021/10/27 12:20:15;;;;;;;;;;;24.20;37.20;;;;;;484668;245;1101;-74
2021/10/27 12:22:18;;;;;;;;;;;24.40;37.10;;;;;;484483;242;1218;-74
2021/10/27 12:24:18;;;;;;;;;;;24.10;37.50;;;;;;484478;246;2258;-74
2021/10/27 12:26:20;;;;;;;;;;;24.10;37.50;;;;;;484445;245;1793;-74
2021/10/27 12:28:20;;;;;;;;;;;24.00;37.80;;;;;;484586;245;2125;-74
2021/10/27 12:30:21;;;;;;;;;;;23.90;37.70;;;;;;484421;245;1662;-74
2021/10/27 12:32:25;;;;;;;;;;;23.80;38.00;;;;;;484485;245;1335;-74
2021/10/27 12:34:26;;;;;;;;;;;24.00;37.90;;;;;;484471;245;1345;-74
2021/10/27 12:36:28;;;;;;;;;;;23.80;37.90;;;;;;484337;245;1223;-74
2021/10/27 12:38:32;;;;;;;;;;;24.10;37.80;;;;;;484464;245;1530;-74
2021/10/27 12:40:31;;;;;;;;;;;24.10;37.70;;;;;;484212;244;1556;-74
2021/10/27 12:42:31;;;;;;;;;;;24.00;37.80;;;;;;484651;245;1224;-74
2021/10/27 12:44:33;;;;;;;;;;;24.00;37.80;;;;;;484408;245;1109;-74
2021/10/27 12:46:34;;;;;;;;;;;23.90;38.00;;;;;;484525;244;1422;-74
2021/10/27 12:48:35;;;;;;;;;;;24.00;38.00;;;;;;485033;244;2194;-74
2021/10/27 12:50:36;;;;;;;;;;;24.00;38.00;;;;;;484438;245;1003;-74
2021/10/27 12:52:40;;;;;;;;;;;23.90;38.10;;;;;;484566;245;1357;-74
2021/10/27 12:54:39;;;;;;;;;;;23.90;38.00;;;;;;484621;246;1321;-74
2021/10/27 12:56:40;;;;;;;;;;;24.00;37.90;;;;;;484550;241;1778;-74
2021/10/27 12:58:43;;;;;;;;;;;24.30;37.60;;;;;;484403;243;1559;-74
2021/10/27 13:00:51;;;;;;;;;;;24.40;37.30;;;;;;484486;246;1401;-74
2021/10/27 13:03:01;;;;;;;;;;;24.50;37.10;;;;;;484511;242;1426;-74
2021/10/27 13:05:00;;;;;;;;;;;24.70;36.90;;;;;;483944;246;1440;-74
2021/10/27 13:07:04;;;;;;;;;;;24.70;36.80;;;;;;484108;246;1414;-74
2021/10/27 13:09:20;;;;;;;;;;;24.40;37.40;;;;;;482901;246;2124;-74
2021/10/27 13:11:33;;;;;;;;;;;24.20;37.60;;;;;;478349;248;1615;-74
2021/10/27 13:13:47;;;;;;;;;;;24.30;37.70;;;;;;478543;248;1359;-74
2021/10/27 13:15:52;;;;;;;;;;;24.60;37.40;;;;;;478178;248;1443;-74
2021/10/27 13:22:48;;;;;;;;;;;24.90;36.80;;;;;;478927;248;1133;-74
2021/10/27 13:29:37;;;;;;;;;;;25.20;36.50;;;;;;478263;249;1119;-74
2021/10/27 13:31:33;;;;;;;;;;;25.20;36.50;;;;;;478160;248;1306;-74
2021/10/27 13:33:34;;;;;;;;;;;24.50;37.30;;;;;;478450;248;1092;-74
2021/10/27 13:35:35;;;;;;;;;;;24.20;38.00;;;;;;478510;248;1357;-74
2021/10/27 13:37:37;;;;;;;;;;;24.10;38.30;;;;;;478644;248;1184;-74
2021/10/27 13:39:38;;;;;;;;;;;24.00;38.40;;;;;;478055;248;1224;-74
2021/10/27 13:41:40;;;;;;;;;;;24.10;38.40;;;;;;478806;248;1211;-74
2021/10/27 13:43:46;;;;;;;;;;;24.00;38.60;;;;;;478763;248;1142;-74
2021/10/27 13:45:47;;;;;;;;;;;23.90;38.70;;;;;;478560;248;1502;-74
2021/10/27 13:47:58;;;;;;;;;;;23.90;38.80;;;;;;478869;248;2193;-74
2021/10/27 14:05:57;;;;;;;;;;;23.50;39.60;;;;;;478859;248;1044;-74
2021/10/27 14:06:03;;;;;;;;;;;23.40;40.00;;;;;;478776;248;1179;-74
2021/10/27 14:08:06;;;;;;;;;;;23.30;40.10;;;;;;478709;248;2131;-74
2021/10/27 14:10:10;;;;;;;;;;;23.30;40.20;;;;;;478685;248;1309;-74
2021/10/27 14:12:17;;;;;;;;;;;23.30;40.30;;;;;;478406;248;1421;-74
2021/10/27 14:14:17;;;;;;;;;;;23.30;40.40;;;;;;478178;243;1389;-74